sensor_id;sensor_type;location;lat;lon;timestamp;temperature;humidity
47168;DHT22;32931;47.778;17.806;2022-12-07T00:01:07;5.20;99.90
47168;DHT22;32931;47.778;17.806;2022-12-07T00:03:35;5.30;99.90
47168;DHT22;32931;47.778;17.806;2022-12-07T00:06:02;5.30;99.90
47168;DHT22;32931;47.778;17.806;2022-12-07T00:08:29;5.30;99.90
47168;DHT22;32931;47.778;17.806;2022-12-07T00:10:59;5.30;99.90
47168;DHT22;32931;47.778;17.806;2022-12-07T00:13:26;5.30;99.90
47168;DHT22;32931;47.778;17.806;2022-12-07T00:15:52;5.40;99.90
47168;DHT22;32931;47.778;17.806;2022-12-07T00:18:18;5.40;99.90
47168;DHT22;32931;47.778;17.806;2022-12-07T00:20:44;5.50;99.90
47168;DHT22;32931;47.778;17.806;2022-12-07T00:23:10;5.50;99.90
47168;DHT22;32931;47.778;17.806;2022-12-07T00:25:36;5.50;99.90
47168;DHT22;32931;47.778;17.806;2022-12-07T00:28:02;5.50;99.90
47168;DHT22;32931;47.778;17.806;2022-12-07T00:30:29;5.50;99.90
47168;DHT22;32931;47.778;17.806;2022-12-07T00:32:55;5.50;99.90
47168;DHT22;32931;47.778;17.806;2022-12-07T00:35:21;5.50;99.90
47168;DHT22;32931;47.778;17.806;2022-12-07T00:37:47;5.50;99.90
47168;DHT22;32931;47.778;17.806;2022-12-07T00:40:13;5.50;99.90
47168;DHT22;32931;47.778;17.806;2022-12-07T00:42:39;5.50;99.90
47168;DHT22;32931;47.778;17.806;2022-12-07T00:45:06;5.50;99.90
47168;DHT22;32931;47.778;17.806;2022-12-07T00:47:32;5.60;99.90
47168;DHT22;32931;47.778;17.806;2022-12-07T00:49:58;5.60;99.90
47168;DHT22;32931;47.778;17.806;2022-12-07T00:52:25;5.50;99.90
47168;DHT22;32931;47.778;17.806;2022-12-07T00:54:52;5.60;99.90
47168;DHT22;32931;47.778;17.806;2022-12-07T00:57:18;5.60;99.90
47168;DHT22;32931;47.778;17.806;2022-12-07T00:59:44;5.60;99.90
47168;DHT22;32931;47.778;17.806;2022-12-07T01:02:10;5.50;99.90
47168;DHT22;32931;47.778;17.806;2022-12-07T01:04:36;5.40;99.90
47168;DHT22;32931;47.778;17.806;2022-12-07T01:07:02;5.40;99.90
47168;DHT22;32931;47.778;17.806;2022-12-07T01:09:28;5.40;99.90
47168;DHT22;32931;47.778;17.806;2022-12-07T01:11:55;5.40;99.90
47168;DHT22;32931;47.778;17.806;2022-12-07T01:14:21;5.40;99.90
47168;DHT22;32931;47.778;17.806;2022-12-07T01:16:47;5.50;99.90
47168;DHT22;32931;47.778;17.806;2022-12-07T01:19:13;5.50;99.90
47168;DHT22;32931;47.778;17.806;2022-12-07T01:21:39;5.50;99.90
47168;DHT22;32931;47.778;17.806;2022-12-07T01:24:07;5.60;99.90
47168;DHT22;32931;47.778;17.806;2022-12-07T01:26:35;5.70;99.90
47168;DHT22;32931;47.778;17.806;2022-12-07T01:29:01;5.70;99.90
47168;DHT22;32931;47.778;17.806;2022-12-07T01:31:28;5.70;99.90
47168;DHT22;32931;47.778;17.806;2022-12-07T01:33:56;5.80;99.90
47168;DHT22;32931;47.778;17.806;2022-12-07T01:36:26;5.80;99.90
47168;DHT22;32931;47.778;17.806;2022-12-07T01:38:58;5.80;99.90
47168;DHT22;32931;47.778;17.806;2022-12-07T01:41:28;5.80;99.90
47168;DHT22;32931;47.778;17.806;2022-12-07T01:47:02;5.80;99.90
47168;DHT22;32931;47.778;17.806;2022-12-07T01:49:36;5.70;99.90
47168;DHT22;32931;47.778;17.806;2022-12-07T01:54:39;5.60;99.90
47168;DHT22;32931;47.778;17.806;2022-12-07T01:57:07;5.60;99.90
47168;DHT22;32931;47.778;17.806;2022-12-07T01:59:34;5.60;99.90
47168;DHT22;32931;47.778;17.806;2022-12-07T02:02:02;5.70;99.90
47168;DHT22;32931;47.778;17.806;2022-12-07T02:04:30;5.70;99.90
47168;DHT22;32931;47.778;17.806;2022-12-07T02:06:57;5.70;99.90
47168;DHT22;32931;47.778;17.806;2022-12-07T02:09:23;5.70;99.90
47168;DHT22;32931;47.778;17.806;2022-12-07T02:11:50;5.80;99.90
47168;DHT22;32931;47.778;17.806;2022-12-07T02:14:17;5.80;99.90
47168;DHT22;32931;47.778;17.806;2022-12-07T02:20:07;5.80;99.90
47168;DHT22;32931;47.778;17.806;2022-12-07T02:28:18;5.70;99.90
47168;DHT22;32931;47.778;17.806;2022-12-07T02:30:48;5.60;99.90
47168;DHT22;32931;47.778;17.806;2022-12-07T02:33:26;5.60;99.90
47168;DHT22;32931;47.778;17.806;2022-12-07T02:36:04;5.60;99.90
47168;DHT22;32931;47.778;17.806;2022-12-07T02:38:53;5.60;99.90
47168;DHT22;32931;47.778;17.806;2022-12-07T02:41:34;5.70;99.90
47168;DHT22;32931;47.778;17.806;2022-12-07T02:44:05;5.70;99.90
47168;DHT22;32931;47.778;17.806;2022-12-07T02:46:37;5.60;99.90
47168;DHT22;32931;47.778;17.806;2022-12-07T02:49:05;5.60;99.90
47168;DHT22;32931;47.778;17.806;2022-12-07T02:51:32;5.60;99.90
47168;DHT22;32931;47.778;17.806;2022-12-07T02:53:59;5.60;99.90
47168;DHT22;32931;47.778;17.806;2022-12-07T03:15:43;5.60;99.90
47168;DHT22;32931;47.778;17.806;2022-12-07T03:18:15;5.50;99.90
47168;DHT22;32931;47.778;17.806;2022-12-07T03:20:44;5.50;99.90
47168;DHT22;32931;47.778;17.806;2022-12-07T03:23:12;5.50;99.90
47168;DHT22;32931;47.778;17.806;2022-12-07T03:25:42;5.50;99.90
47168;DHT22;32931;47.778;17.806;2022-12-07T03:28:14;5.50;99.90
47168;DHT22;32931;47.778;17.806;2022-12-07T03:30:58;5.50;99.90
47168;DHT22;32931;47.778;17.806;2022-12-07T03:33:31;5.50;99.90
47168;DHT22;32931;47.778;17.806;2022-12-07T03:36:14;5.50;99.90
47168;DHT22;32931;47.778;17.806;2022-12-07T03:38:50;5.50;99.90
47168;DHT22;32931;47.778;17.806;2022-12-07T03:43:46;5.50;99.90
47168;DHT22;32931;47.778;17.806;2022-12-07T03:49:07;5.50;99.90
47168;DHT22;32931;47.778;17.806;2022-12-07T03:51:55;5.60;99.90
47168;DHT22;32931;47.778;17.806;2022-12-07T03:54:36;5.60;99.90
47168;DHT22;32931;47.778;17.806;2022-12-07T03:57:05;5.60;99.90
47168;DHT22;32931;47.778;17.806;2022-12-07T03:59:33;5.60;99.90
47168;DHT22;32931;47.778;17.806;2022-12-07T04:02:04;5.50;99.90
47168;DHT22;32931;47.778;17.806;2022-12-07T04:04:31;5.50;99.90
47168;DHT22;32931;47.778;17.806;2022-12-07T04:06:57;5.40;99.90
47168;DHT22;32931;47.778;17.806;2022-12-07T04:09:23;5.50;99.90
47168;DHT22;32931;47.778;17.806;2022-12-07T04:11:49;5.40;99.90
47168;DHT22;32931;47.778;17.806;2022-12-07T04:14:16;5.40;99.90
47168;DHT22;32931;47.778;17.806;2022-12-07T04:16:55;5.40;99.90
47168;DHT22;32931;47.778;17.806;2022-12-07T04:19:27;5.40;99.90
47168;DHT22;32931;47.778;17.806;2022-12-07T04:21:55;5.30;99.90
47168;DHT22;32931;47.778;17.806;2022-12-07T04:24:21;5.30;99.90
47168;DHT22;32931;47.778;17.806;2022-12-07T04:26:48;5.40;99.90
47168;DHT22;32931;47.778;17.806;2022-12-07T04:29:15;5.40;99.90
47168;DHT22;32931;47.778;17.806;2022-12-07T04:31:41;5.30;99.90
47168;DHT22;32931;47.778;17.806;2022-12-07T04:34:08;5.40;99.90
47168;DHT22;32931;47.778;17.806;2022-12-07T04:36:35;5.40;99.90
47168;DHT22;32931;47.778;17.806;2022-12-07T04:39:02;5.40;99.90
47168;DHT22;32931;47.778;17.806;2022-12-07T04:41:28;5.30;99.90
47168;DHT22;32931;47.778;17.806;2022-12-07T04:43:59;5.30;99.90
47168;DHT22;32931;47.778;17.806;2022-12-07T04:46:26;5.20;99.90
47168;DHT22;32931;47.778;17.806;2022-12-07T04:48:53;5.20;99.90
47168;DHT22;32931;47.778;17.806;2022-12-07T04:51:22;5.20;99.90
47168;DHT22;32931;47.778;17.806;2022-12-07T04:53:49;5.20;99.90
47168;DHT22;32931;47.778;17.806;2022-12-07T04:56:16;5.20;99.90
47168;DHT22;32931;47.778;17.806;2022-12-07T04:58:45;5.20;99.90
47168;DHT22;32931;47.778;17.806;2022-12-07T05:01:12;5.30;99.90
47168;DHT22;32931;47.778;17.806;2022-12-07T05:03:39;5.20;99.90
47168;DHT22;32931;47.778;17.806;2022-12-07T05:06:06;5.20;99.90
47168;DHT22;32931;47.778;17.806;2022-12-07T05:08:33;5.20;99.90
47168;DHT22;32931;47.778;17.806;2022-12-07T05:11:00;5.20;99.90
47168;DHT22;32931;47.778;17.806;2022-12-07T05:13:27;5.20;99.90
47168;DHT22;32931;47.778;17.806;2022-12-07T05:15:53;5.20;99.90
47168;DHT22;32931;47.778;17.806;2022-12-07T05:18:19;5.20;99.90
47168;DHT22;32931;47.778;17.806;2022-12-07T05:20:45;5.10;99.90
47168;DHT22;32931;47.778;17.806;2022-12-07T05:23:12;5.10;99.90
47168;DHT22;32931;47.778;17.806;2022-12-07T05:25:39;5.10;99.90
47168;DHT22;32931;47.778;17.806;2022-12-07T05:28:05;5.10;99.90
47168;DHT22;32931;47.778;17.806;2022-12-07T05:30:32;5.10;99.90
47168;DHT22;32931;47.778;17.806;2022-12-07T05:32:58;5.10;99.90
47168;DHT22;32931;47.778;17.806;2022-12-07T05:35:24;5.00;99.90
47168;DHT22;32931;47.778;17.806;2022-12-07T05:37:50;5.00;99.90
47168;DHT22;32931;47.778;17.806;2022-12-07T05:40:17;5.00;99.90
47168;DHT22;32931;47.778;17.806;2022-12-07T05:42:45;5.00;99.90
47168;DHT22;32931;47.778;17.806;2022-12-07T05:45:11;5.00;99.90
47168;DHT22;32931;47.778;17.806;2022-12-07T05:47:37;5.00;99.90
47168;DHT22;32931;47.778;17.806;2022-12-07T05:50:04;5.00;99.90
47168;DHT22;32931;47.778;17.806;2022-12-07T05:52:31;5.00;99.90
47168;DHT22;32931;47.778;17.806;2022-12-07T05:54:57;5.00;99.90
47168;DHT22;32931;47.778;17.806;2022-12-07T05:57:24;5.00;99.90
47168;DHT22;32931;47.778;17.806;2022-12-07T05:59:50;4.90;99.90
47168;DHT22;32931;47.778;17.806;2022-12-07T06:02:16;4.90;99.90
47168;DHT22;32931;47.778;17.806;2022-12-07T06:04:45;4.90;99.90
47168;DHT22;32931;47.778;17.806;2022-12-07T06:07:16;4.90;99.90
47168;DHT22;32931;47.778;17.806;2022-12-07T06:09:42;4.90;99.90
47168;DHT22;32931;47.778;17.806;2022-12-07T06:12:10;4.90;99.90
47168;DHT22;32931;47.778;17.806;2022-12-07T06:15:12;4.90;99.90
47168;DHT22;32931;47.778;17.806;2022-12-07T06:17:39;4.80;99.90
47168;DHT22;32931;47.778;17.806;2022-12-07T06:20:06;4.90;99.90
47168;DHT22;32931;47.778;17.806;2022-12-07T06:22:32;4.90;99.90
47168;DHT22;32931;47.778;17.806;2022-12-07T06:24:58;4.90;99.90
47168;DHT22;32931;47.778;17.806;2022-12-07T06:27:24;4.90;99.90
47168;DHT22;32931;47.778;17.806;2022-12-07T06:29:50;4.90;99.90
47168;DHT22;32931;47.778;17.806;2022-12-07T06:32:17;4.90;99.90
47168;DHT22;32931;47.778;17.806;2022-12-07T06:34:43;5.00;99.90
47168;DHT22;32931;47.778;17.806;2022-12-07T06:37:09;5.00;99.90
47168;DHT22;32931;47.778;17.806;2022-12-07T06:39:35;4.90;99.90
47168;DHT22;32931;47.778;17.806;2022-12-07T06:42:01;4.90;99.90
47168;DHT22;32931;47.778;17.806;2022-12-07T06:44:28;5.00;99.90
47168;DHT22;32931;47.778;17.806;2022-12-07T06:46:54;5.00;99.90
47168;DHT22;32931;47.778;17.806;2022-12-07T06:49:21;5.00;99.90
47168;DHT22;32931;47.778;17.806;2022-12-07T06:51:47;5.00;99.90
47168;DHT22;32931;47.778;17.806;2022-12-07T06:54:14;5.00;99.90
47168;DHT22;32931;47.778;17.806;2022-12-07T06:56:41;5.00;99.90
47168;DHT22;32931;47.778;17.806;2022-12-07T06:59:07;5.10;99.90
47168;DHT22;32931;47.778;17.806;2022-12-07T07:01:35;5.10;99.90
47168;DHT22;32931;47.778;17.806;2022-12-07T07:04:02;5.10;99.90
47168;DHT22;32931;47.778;17.806;2022-12-07T07:06:28;5.10;99.90
47168;DHT22;32931;47.778;17.806;2022-12-07T07:08:54;5.10;99.90
47168;DHT22;32931;47.778;17.806;2022-12-07T07:11:20;5.10;99.90
47168;DHT22;32931;47.778;17.806;2022-12-07T07:13:46;5.10;99.90
47168;DHT22;32931;47.778;17.806;2022-12-07T07:16:13;5.10;99.90
47168;DHT22;32931;47.778;17.806;2022-12-07T07:18:39;5.10;99.90
47168;DHT22;32931;47.778;17.806;2022-12-07T07:21:05;5.10;99.90
47168;DHT22;32931;47.778;17.806;2022-12-07T07:23:31;5.10;99.90
47168;DHT22;32931;47.778;17.806;2022-12-07T07:25:57;5.10;99.90
47168;DHT22;32931;47.778;17.806;2022-12-07T07:28:23;5.10;99.90
47168;DHT22;32931;47.778;17.806;2022-12-07T07:30:50;5.20;99.90
47168;DHT22;32931;47.778;17.806;2022-12-07T07:33:16;5.20;99.90
47168;DHT22;32931;47.778;17.806;2022-12-07T07:35:42;5.20;99.90
47168;DHT22;32931;47.778;17.806;2022-12-07T07:38:08;5.30;99.90
47168;DHT22;32931;47.778;17.806;2022-12-07T07:40:35;5.30;99.90
47168;DHT22;32931;47.778;17.806;2022-12-07T07:43:01;5.30;99.90
47168;DHT22;32931;47.778;17.806;2022-12-07T07:45:28;5.30;99.90
47168;DHT22;32931;47.778;17.806;2022-12-07T07:47:54;5.30;99.90
47168;DHT22;32931;47.778;17.806;2022-12-07T07:50:21;5.30;99.90
47168;DHT22;32931;47.778;17.806;2022-12-07T07:52:48;5.30;99.90
47168;DHT22;32931;47.778;17.806;2022-12-07T07:55:14;5.30;99.90
47168;DHT22;32931;47.778;17.806;2022-12-07T07:57:41;5.40;99.90
47168;DHT22;32931;47.778;17.806;2022-12-07T08:00:10;5.40;99.90
47168;DHT22;32931;47.778;17.806;2022-12-07T08:02:36;5.40;99.90
47168;DHT22;32931;47.778;17.806;2022-12-07T08:05:03;5.40;99.90
47168;DHT22;32931;47.778;17.806;2022-12-07T08:07:29;5.40;99.90
47168;DHT22;32931;47.778;17.806;2022-12-07T08:09:55;5.40;99.90
47168;DHT22;32931;47.778;17.806;2022-12-07T08:12:21;5.50;99.90
47168;DHT22;32931;47.778;17.806;2022-12-07T08:14:47;5.50;99.90
47168;DHT22;32931;47.778;17.806;2022-12-07T08:17:14;5.50;99.90
47168;DHT22;32931;47.778;17.806;2022-12-07T08:19:40;5.60;99.90
47168;DHT22;32931;47.778;17.806;2022-12-07T08:22:08;5.60;99.90
47168;DHT22;32931;47.778;17.806;2022-12-07T08:24:35;5.60;99.90
47168;DHT22;32931;47.778;17.806;2022-12-07T08:27:01;5.60;99.90
47168;DHT22;32931;47.778;17.806;2022-12-07T08:29:27;5.70;99.90
47168;DHT22;32931;47.778;17.806;2022-12-07T08:31:53;5.60;99.90
47168;DHT22;32931;47.778;17.806;2022-12-07T08:34:19;5.70;99.90
47168;DHT22;32931;47.778;17.806;2022-12-07T08:36:46;5.70;99.90
47168;DHT22;32931;47.778;17.806;2022-12-07T08:39:12;5.70;99.90
47168;DHT22;32931;47.778;17.806;2022-12-07T08:41:38;5.70;99.90
47168;DHT22;32931;47.778;17.806;2022-12-07T08:44:05;5.70;99.90
47168;DHT22;32931;47.778;17.806;2022-12-07T08:46:51;5.70;99.90
47168;DHT22;32931;47.778;17.806;2022-12-07T08:49:22;5.70;99.90
47168;DHT22;32931;47.778;17.806;2022-12-07T08:51:49;5.70;99.90
47168;DHT22;32931;47.778;17.806;2022-12-07T08:54:17;5.70;99.90
47168;DHT22;32931;47.778;17.806;2022-12-07T08:56:45;5.70;99.90
47168;DHT22;32931;47.778;17.806;2022-12-07T08:59:14;5.70;99.90
47168;DHT22;32931;47.778;17.806;2022-12-07T09:01:41;5.80;99.90
47168;DHT22;32931;47.778;17.806;2022-12-07T09:04:07;5.80;99.90
47168;DHT22;32931;47.778;17.806;2022-12-07T09:06:34;5.80;99.90
47168;DHT22;32931;47.778;17.806;2022-12-07T09:09:01;5.90;99.90
47168;DHT22;32931;47.778;17.806;2022-12-07T09:11:28;5.90;99.90
47168;DHT22;32931;47.778;17.806;2022-12-07T09:13:55;5.90;99.90
47168;DHT22;32931;47.778;17.806;2022-12-07T09:16:21;5.90;99.90
47168;DHT22;32931;47.778;17.806;2022-12-07T09:18:47;6.00;99.90
47168;DHT22;32931;47.778;17.806;2022-12-07T09:21:14;6.00;99.90
47168;DHT22;32931;47.778;17.806;2022-12-07T09:23:41;6.10;99.90
47168;DHT22;32931;47.778;17.806;2022-12-07T09:26:08;6.20;99.90
47168;DHT22;32931;47.778;17.806;2022-12-07T09:28:34;6.20;99.90
47168;DHT22;32931;47.778;17.806;2022-12-07T09:31:02;6.30;99.90
47168;DHT22;32931;47.778;17.806;2022-12-07T09:33:29;6.30;99.90
47168;DHT22;32931;47.778;17.806;2022-12-07T09:35:55;6.40;99.90
47168;DHT22;32931;47.778;17.806;2022-12-07T09:38:21;6.40;99.90
47168;DHT22;32931;47.778;17.806;2022-12-07T09:40:48;6.50;99.90
47168;DHT22;32931;47.778;17.806;2022-12-07T09:43:19;6.60;99.90
47168;DHT22;32931;47.778;17.806;2022-12-07T09:45:48;6.70;99.90
47168;DHT22;32931;47.778;17.806;2022-12-07T09:48:19;6.70;99.90
47168;DHT22;32931;47.778;17.806;2022-12-07T09:50:47;6.70;99.90
47168;DHT22;32931;47.778;17.806;2022-12-07T09:53:26;6.80;99.90
47168;DHT22;32931;47.778;17.806;2022-12-07T09:55:53;6.80;99.90
47168;DHT22;32931;47.778;17.806;2022-12-07T09:58:25;6.80;99.90
47168;DHT22;32931;47.778;17.806;2022-12-07T10:03:27;6.70;99.90
47168;DHT22;32931;47.778;17.806;2022-12-07T10:05:55;6.80;99.90
47168;DHT22;32931;47.778;17.806;2022-12-07T10:08:21;6.80;99.90
47168;DHT22;32931;47.778;17.806;2022-12-07T10:10:57;6.90;99.90
47168;DHT22;32931;47.778;17.806;2022-12-07T10:13:55;6.90;99.90
47168;DHT22;32931;47.778;17.806;2022-12-07T10:16:40;6.90;99.90
47168;DHT22;32931;47.778;17.806;2022-12-07T10:19:20;6.80;99.90
47168;DHT22;32931;47.778;17.806;2022-12-07T10:22:06;6.90;99.90
47168;DHT22;32931;47.778;17.806;2022-12-07T10:24:34;6.90;99.90
47168;DHT22;32931;47.778;17.806;2022-12-07T10:27:03;6.90;99.90
47168;DHT22;32931;47.778;17.806;2022-12-07T10:29:36;6.90;99.90
47168;DHT22;32931;47.778;17.806;2022-12-07T10:32:21;6.90;99.90
47168;DHT22;32931;47.778;17.806;2022-12-07T10:34:49;6.90;99.90
47168;DHT22;32931;47.778;17.806;2022-12-07T10:37:20;7.00;99.90
47168;DHT22;32931;47.778;17.806;2022-12-07T10:39:56;7.00;99.90
47168;DHT22;32931;47.778;17.806;2022-12-07T10:42:30;7.10;99.90
47168;DHT22;32931;47.778;17.806;2022-12-07T10:58:39;7.60;99.90
47168;DHT22;32931;47.778;17.806;2022-12-07T11:14:56;7.80;99.90
47168;DHT22;32931;47.778;17.806;2022-12-07T11:23:03;7.80;99.90
47168;DHT22;32931;47.778;17.806;2022-12-07T11:25:39;7.80;99.90
47168;DHT22;32931;47.778;17.806;2022-12-07T11:29:04;7.80;99.90
47168;DHT22;32931;47.778;17.806;2022-12-07T11:31:54;7.90;99.90
47168;DHT22;32931;47.778;17.806;2022-12-07T11:34:46;7.80;99.90
47168;DHT22;32931;47.778;17.806;2022-12-07T11:37:19;7.80;99.90
47168;DHT22;32931;47.778;17.806;2022-12-07T11:40:00;7.70;99.90
47168;DHT22;32931;47.778;17.806;2022-12-07T11:42:49;7.80;99.90
47168;DHT22;32931;47.778;17.806;2022-12-07T11:45:27;7.70;99.90
47168;DHT22;32931;47.778;17.806;2022-12-07T11:53:18;7.80;99.90
47168;DHT22;32931;47.778;17.806;2022-12-07T12:01:18;7.70;99.90
47168;DHT22;32931;47.778;17.806;2022-12-07T12:06:23;7.70;99.90
47168;DHT22;32931;47.778;17.806;2022-12-07T12:09:04;7.60;99.90
47168;DHT22;32931;47.778;17.806;2022-12-07T12:22:45;7.50;99.90
47168;DHT22;32931;47.778;17.806;2022-12-07T12:25:28;7.60;99.90
47168;DHT22;32931;47.778;17.806;2022-12-07T12:27:58;7.50;99.90
47168;DHT22;32931;47.778;17.806;2022-12-07T12:30:35;7.50;99.90
47168;DHT22;32931;47.778;17.806;2022-12-07T12:33:28;7.50;99.90
47168;DHT22;32931;47.778;17.806;2022-12-07T12:51:53;7.10;99.90
47168;DHT22;32931;47.778;17.806;2022-12-07T12:54:21;7.00;99.90
47168;DHT22;32931;47.778;17.806;2022-12-07T13:00:00;7.00;99.90
47168;DHT22;32931;47.778;17.806;2022-12-07T13:15:46;6.90;99.90
47168;DHT22;32931;47.778;17.806;2022-12-07T13:18:24;7.00;99.90
47168;DHT22;32931;47.778;17.806;2022-12-07T13:29:15;7.00;99.90
47168;DHT22;32931;47.778;17.806;2022-12-07T13:42:33;6.90;99.90
47168;DHT22;32931;47.778;17.806;2022-12-07T13:45:20;6.90;99.90
47168;DHT22;32931;47.778;17.806;2022-12-07T13:47:52;6.90;99.90
47168;DHT22;32931;47.778;17.806;2022-12-07T13:50:30;6.90;99.90
47168;DHT22;32931;47.778;17.806;2022-12-07T13:52:58;6.90;99.90
47168;DHT22;32931;47.778;17.806;2022-12-07T13:55:26;6.80;99.90
47168;DHT22;32931;47.778;17.806;2022-12-07T13:57:55;6.80;99.90
47168;DHT22;32931;47.778;17.806;2022-12-07T14:00:24;6.70;99.90
47168;DHT22;32931;47.778;17.806;2022-12-07T14:05:30;6.60;99.90
47168;DHT22;32931;47.778;17.806;2022-12-07T14:15:51;6.50;99.90
47168;DHT22;32931;47.778;17.806;2022-12-07T14:18:27;6.50;99.90
47168;DHT22;32931;47.778;17.806;2022-12-07T14:21:24;6.50;99.90
47168;DHT22;32931;47.778;17.806;2022-12-07T14:24:12;6.40;99.90
47168;DHT22;32931;47.778;17.806;2022-12-07T14:26:41;6.30;99.90
47168;DHT22;32931;47.778;17.806;2022-12-07T14:31:52;6.10;99.90
47168;DHT22;32931;47.778;17.806;2022-12-07T14:34:22;6.00;99.90
47168;DHT22;32931;47.778;17.806;2022-12-07T14:36:49;6.00;99.90
47168;DHT22;32931;47.778;17.806;2022-12-07T14:39:15;6.00;99.90
47168;DHT22;32931;47.778;17.806;2022-12-07T14:41:41;5.90;99.90
47168;DHT22;32931;47.778;17.806;2022-12-07T14:44:20;5.90;99.90
47168;DHT22;32931;47.778;17.806;2022-12-07T14:46:50;5.90;99.90
47168;DHT22;32931;47.778;17.806;2022-12-07T14:49:17;5.90;99.90
47168;DHT22;32931;47.778;17.806;2022-12-07T14:51:45;5.80;99.90
47168;DHT22;32931;47.778;17.806;2022-12-07T14:54:19;5.80;99.90
47168;DHT22;32931;47.778;17.806;2022-12-07T14:56:46;5.80;99.90
47168;DHT22;32931;47.778;17.806;2022-12-07T14:59:16;5.80;99.90
47168;DHT22;32931;47.778;17.806;2022-12-07T15:01:43;5.70;99.90
47168;DHT22;32931;47.778;17.806;2022-12-07T15:04:09;5.60;99.90
47168;DHT22;32931;47.778;17.806;2022-12-07T15:06:35;5.60;99.90
47168;DHT22;32931;47.778;17.806;2022-12-07T15:09:01;5.60;99.90
47168;DHT22;32931;47.778;17.806;2022-12-07T15:11:27;5.50;99.90
47168;DHT22;32931;47.778;17.806;2022-12-07T15:13:53;5.50;99.90
47168;DHT22;32931;47.778;17.806;2022-12-07T15:16:38;5.50;99.90
47168;DHT22;32931;47.778;17.806;2022-12-07T15:19:16;5.40;99.90
47168;DHT22;32931;47.778;17.806;2022-12-07T15:21:43;5.30;99.90
47168;DHT22;32931;47.778;17.806;2022-12-07T15:24:11;5.30;99.90
47168;DHT22;32931;47.778;17.806;2022-12-07T15:26:39;5.30;99.90
47168;DHT22;32931;47.778;17.806;2022-12-07T15:29:06;5.20;99.90
47168;DHT22;32931;47.778;17.806;2022-12-07T15:31:33;5.00;99.90
47168;DHT22;32931;47.778;17.806;2022-12-07T15:33:59;5.00;99.90
47168;DHT22;32931;47.778;17.806;2022-12-07T15:36:28;5.00;99.90
47168;DHT22;32931;47.778;17.806;2022-12-07T15:38:55;5.00;99.90
47168;DHT22;32931;47.778;17.806;2022-12-07T15:41:21;5.00;99.90
47168;DHT22;32931;47.778;17.806;2022-12-07T15:43:47;4.90;99.90
47168;DHT22;32931;47.778;17.806;2022-12-07T15:46:34;4.90;99.90
47168;DHT22;32931;47.778;17.806;2022-12-07T15:49:03;4.90;99.90
47168;DHT22;32931;47.778;17.806;2022-12-07T15:51:30;4.90;99.90
47168;DHT22;32931;47.778;17.806;2022-12-07T15:53:57;4.90;99.90
47168;DHT22;32931;47.778;17.806;2022-12-07T15:56:24;4.90;99.90
47168;DHT22;32931;47.778;17.806;2022-12-07T15:58:50;4.80;99.90
47168;DHT22;32931;47.778;17.806;2022-12-07T16:01:19;4.80;99.90
47168;DHT22;32931;47.778;17.806;2022-12-07T16:03:46;4.80;99.90
47168;DHT22;32931;47.778;17.806;2022-12-07T16:06:16;4.80;99.90
47168;DHT22;32931;47.778;17.806;2022-12-07T16:08:43;4.80;99.90
47168;DHT22;32931;47.778;17.806;2022-12-07T16:11:10;4.80;99.90
47168;DHT22;32931;47.778;17.806;2022-12-07T16:13:36;4.70;99.90
47168;DHT22;32931;47.778;17.806;2022-12-07T16:16:08;4.70;99.90
47168;DHT22;32931;47.778;17.806;2022-12-07T16:18:35;4.70;99.90
47168;DHT22;32931;47.778;17.806;2022-12-07T16:21:01;4.70;99.90
47168;DHT22;32931;47.778;17.806;2022-12-07T16:23:28;4.70;99.90
47168;DHT22;32931;47.778;17.806;2022-12-07T16:25:54;4.70;99.90
47168;DHT22;32931;47.778;17.806;2022-12-07T16:28:20;4.70;99.90
47168;DHT22;32931;47.778;17.806;2022-12-07T16:30:47;4.80;99.90
47168;DHT22;32931;47.778;17.806;2022-12-07T16:33:13;4.80;99.90
47168;DHT22;32931;47.778;17.806;2022-12-07T16:35:40;4.80;99.90
47168;DHT22;32931;47.778;17.806;2022-12-07T16:38:09;4.80;99.90
47168;DHT22;32931;47.778;17.806;2022-12-07T16:40:35;4.80;99.90
47168;DHT22;32931;47.778;17.806;2022-12-07T16:43:01;4.80;99.90
47168;DHT22;32931;47.778;17.806;2022-12-07T16:45:28;4.90;99.90
47168;DHT22;32931;47.778;17.806;2022-12-07T16:47:54;4.90;99.90
47168;DHT22;32931;47.778;17.806;2022-12-07T16:50:20;4.90;99.90
47168;DHT22;32931;47.778;17.806;2022-12-07T16:52:46;4.90;99.90
47168;DHT22;32931;47.778;17.806;2022-12-07T16:55:12;4.90;99.90
47168;DHT22;32931;47.778;17.806;2022-12-07T16:57:38;4.90;99.90
47168;DHT22;32931;47.778;17.806;2022-12-07T17:00:05;4.90;99.90
47168;DHT22;32931;47.778;17.806;2022-12-07T17:02:31;4.90;99.90
47168;DHT22;32931;47.778;17.806;2022-12-07T17:04:57;4.90;99.90
47168;DHT22;32931;47.778;17.806;2022-12-07T17:07:23;4.90;99.90
47168;DHT22;32931;47.778;17.806;2022-12-07T17:09:50;4.90;99.90
47168;DHT22;32931;47.778;17.806;2022-12-07T17:12:18;4.90;99.90
47168;DHT22;32931;47.778;17.806;2022-12-07T17:14:44;4.90;99.90
47168;DHT22;32931;47.778;17.806;2022-12-07T17:17:29;4.90;99.90
47168;DHT22;32931;47.778;17.806;2022-12-07T17:19:55;4.90;99.90
47168;DHT22;32931;47.778;17.806;2022-12-07T17:22:21;4.80;99.90
47168;DHT22;32931;47.778;17.806;2022-12-07T17:24:47;4.70;99.90
47168;DHT22;32931;47.778;17.806;2022-12-07T17:27:13;4.70;99.90
47168;DHT22;32931;47.778;17.806;2022-12-07T17:29:39;4.70;99.90
47168;DHT22;32931;47.778;17.806;2022-12-07T17:32:05;4.70;99.90
47168;DHT22;32931;47.778;17.806;2022-12-07T17:34:32;4.70;99.90
47168;DHT22;32931;47.778;17.806;2022-12-07T17:36:58;4.60;99.90
47168;DHT22;32931;47.778;17.806;2022-12-07T17:39:24;4.50;99.90
47168;DHT22;32931;47.778;17.806;2022-12-07T17:41:51;4.50;99.90
47168;DHT22;32931;47.778;17.806;2022-12-07T17:44:35;4.50;99.90
47168;DHT22;32931;47.778;17.806;2022-12-07T17:47:02;4.40;99.90
47168;DHT22;32931;47.778;17.806;2022-12-07T17:49:29;4.30;99.90
47168;DHT22;32931;47.778;17.806;2022-12-07T17:51:55;4.20;99.90
47168;DHT22;32931;47.778;17.806;2022-12-07T17:54:40;4.30;99.90
47168;DHT22;32931;47.778;17.806;2022-12-07T17:57:07;4.20;99.90
47168;DHT22;32931;47.778;17.806;2022-12-07T17:59:33;4.20;99.90
47168;DHT22;32931;47.778;17.806;2022-12-07T18:01:59;4.20;99.90
47168;DHT22;32931;47.778;17.806;2022-12-07T18:04:25;4.20;99.90
47168;DHT22;32931;47.778;17.806;2022-12-07T18:06:51;4.10;99.90
47168;DHT22;32931;47.778;17.806;2022-12-07T18:09:18;4.20;99.90
47168;DHT22;32931;47.778;17.806;2022-12-07T18:11:44;4.20;99.90
47168;DHT22;32931;47.778;17.806;2022-12-07T18:14:10;4.20;99.90
47168;DHT22;32931;47.778;17.806;2022-12-07T18:16:37;4.20;99.90
47168;DHT22;32931;47.778;17.806;2022-12-07T18:19:05;4.20;99.90
47168;DHT22;32931;47.778;17.806;2022-12-07T18:21:32;4.20;99.90
47168;DHT22;32931;47.778;17.806;2022-12-07T18:24:01;4.20;99.90
47168;DHT22;32931;47.778;17.806;2022-12-07T18:26:29;4.20;99.90